Terminal Aerodrome Forecast
Issued by NWS Twin Cities, MN

Home | Current Version | Previous Version | Text Only | Print | Product List | Glossary Off
Versions: 1 2 3 4 5 6 7 8 9 10 11 12 13 14 15 16 17 18 19 20 21 22 23 24 25 26 27 28 29 30

000
FTUS43 KMPX 231720
TAFMSP
TAF
KMSP 231720Z 2318/2424 18015G25KT P6SM FEW040 BKN200
     FM240100 16011KT P6SM VCSH SCT040 BKN120 PROB30 2403/2406 4SM
      TSRA OVC015CB
     FM240600 15007KT P6SM -SHRA SCT015 OVC030 PROB30 2406/2410 5SM
      -TSRA BR BKN015CB
     FM241100 23005KT 6SM BR SCT007 OVC015
     FM241500 27007KT P6SM SCT015 OVC025
     FM241800 29010KT P6SM FEW025=

USA.gov is the U.S. government's official web portal to all federal, state and local government web resources and services.